aviador You're here:

KLRD Decoded Metar

LAREDO in TX, USA
Report Time2018-05-20 22:56:00
UTC Time2018-05-20 23:06:25
Flight Rules vfr VFR
Wind120° at 08 kt
W.Decomp.*RWY 14: 7.1 kt HW 3.8 kt LCW
RWY 17: 4.2 kt HW 6.8 kt LCW
W.Rank120° ranks 4
Current wind is below 120° avg. (9.1)
Visibility9999 m
Phenomena:N/A
Clouds:Scattered 075 Hf
Overcast 110 Hf
Expected CloudBase > 6,400 ft AGL from Temp-Dew spread
Ceiling11,000 ft
Temp34°C (ISA +20)
Dew Point18°C (39% RH)
Heat Index35.2°C
AAT33.9°C
QNH1010 hPa
Density Alt3,156 ft
Elevation509 ft
Report Wrong Elevation
Raw Report
KLRD 202256Z 12008KT 10SM SCT075 OVC110 34/18 A2983 RMK AO2 LTG
DSNT NE SLP098 T03440183=

Extra information for KLRD:More info

Metar Taf Metar & Taf Last 4 Metars F.Rules Stats Wind Profile Meteogram Temp Stats Airport Information Weather charts Add Link Nearby VenuesMetar ALERT Operation Metar Decoded Social comments

AIRNAV info for KLRD